Time;durP1;ratioP1;P1;durP2;ratioP2;P2;SDS_P1;SDS_P2;PMS_P1;PMS_P2;Temp;Humidity;BMP_temperature;BMP_pressure;BME280_temperature;BME280_humidity;BME280_pressure;Samples;Min_cycle;Max_cycle;Signal;HPM_P1;HPM_P2
2022/08/31 00:04:48;;;;;;;;;9.25;6.00;;;;;22.68;43.21;101231.22;5058489;27;45311;-43
2022/08/31 00:07:14;;;;;;;;;6.00;6.00;;;;;22.64;43.50;101227.06;5069210;27;45249;-43
2022/08/31 00:09:39;;;;;;;;;8.00;6.00;;;;;22.59;43.15;101222.03;5051056;28;45492;-44
2022/08/31 00:12:05;;;;;;;;;6.75;5.00;;;;;22.56;43.26;101222.28;5068123;27;52426;-45
2022/08/31 00:14:30;;;;;;;;;8.00;6.25;;;;;22.52;43.14;101220.78;5069570;28;46506;-43
2022/08/31 00:16:56;;;;;;;;;7.00;6.25;;;;;22.49;43.40;101219.19;5055788;28;54374;-41
2022/08/31 00:19:21;;;;;;;;;8.75;6.25;;;;;22.47;43.10;101213.09;5073343;27;45678;-42
2022/08/31 00:21:47;;;;;;;;;8.75;5.75;;;;;22.44;43.09;101213.31;5073888;28;45351;-42
2022/08/31 00:24:13;;;;;;;;;9.75;6.00;;;;;22.43;42.81;101214.25;5069277;28;64979;-42
2022/08/31 00:26:39;;;;;;;;;8.00;5.25;;;;;22.41;42.93;101208.19;5072520;28;45290;-43
2022/08/31 00:29:05;;;;;;;;;7.75;5.75;;;;;22.36;43.52;101205.84;5071252;27;45554;-45
2022/08/31 00:31:30;;;;;;;;;6.00;5.00;;;;;22.34;43.17;101215.75;5074929;27;46293;-46
2022/08/31 00:33:56;;;;;;;;;7.75;5.25;;;;;22.31;43.52;101210.66;5057114;28;53310;-44
2022/08/31 00:36:24;;;;;;;;;4.50;4.25;;;;;22.27;43.83;101211.78;5073789;28;65443;-46
2022/08/31 00:38:50;;;;;;;;;7.00;5.25;;;;;22.26;43.68;101209.22;5075874;28;45237;-45
2022/08/31 00:41:18;;;;;;;;;5.75;5.75;;;;;22.24;43.59;101213.78;5080414;28;46348;-44
2022/08/31 00:43:48;;;;;;;;;6.00;5.50;;;;;22.23;43.65;101212.94;5082149;28;45385;-45
2022/08/31 00:46:17;;;;;;;;;8.00;6.75;;;;;22.22;43.71;101211.22;5082034;28;45267;-45
2022/08/31 00:49:07;;;;;;;;;9.50;6.50;;;;;22.19;44.08;101201.63;5091707;27;45486;-43
2022/08/31 00:51:39;;;;;;;;;6.25;4.00;;;;;22.17;43.90;101214.22;5073045;27;48025;-42
2022/08/31 00:54:05;;;;;;;;;4.50;4.00;;;;;22.14;43.54;101210.91;5071832;28;45459;-42
2022/08/31 00:56:33;;;;;;;;;5.75;5.75;;;;;22.12;43.48;101213.69;5063663;28;45279;-43
2022/08/31 00:58:59;;;;;;;;;5.75;5.50;;;;;22.10;44.09;101218.28;5072466;28;45352;-48
2022/08/31 01:01:25;;;;;;;;;5.00;5.00;;;;;22.05;43.52;101214.22;5054416;28;45474;-43
2022/08/31 01:03:50;;;;;;;;;5.50;4.50;;;;;22.02;43.83;101217.91;5072540;28;45993;-50
2022/08/31 01:06:17;;;;;;;;;10.50;6.00;;;;;21.98;44.37;101214.63;5080677;28;66900;-42
2022/08/31 01:08:43;;;;;;;;;5.50;3.75;;;;;21.96;43.67;101218.34;5062517;28;47314;-42
2022/08/31 01:11:09;;;;;;;;;6.00;5.00;;;;;21.93;44.12;101222.06;5059864;28;46374;-46
2022/08/31 01:13:34;;;;;;;;;5.00;5.00;;;;;21.90;44.17;101224.94;5077104;28;45404;-44
2022/08/31 01:16:04;;;;;;;;;4.75;4.25;;;;;21.88;43.81;101220.66;5076193;28;45494;-43
2022/08/31 01:18:31;;;;;;;;;4.50;4.25;;;;;21.86;44.29;101220.75;5063201;28;45490;-47
2022/08/31 01:21:15;;;;;;;;;8.25;5.00;;;;;21.82;44.12;101221.09;5063936;28;46693;-44
2022/08/31 01:23:42;;;;;;;;;5.25;4.00;;;;;21.74;44.13;101219.78;5087593;27;45361;-43
2022/08/31 01:26:09;;;;;;;;;9.00;4.25;;;;;21.71;44.54;101222.66;5049876;28;45514;-48
2022/08/31 01:28:34;;;;;;;;;4.75;4.75;;;;;21.67;44.66;101221.13;5059544;28;45596;-47
2022/08/31 01:31:22;;;;;;;;;6.00;4.50;;;;;21.67;44.14;101231.78;5079164;28;47004;-48
2022/08/31 01:33:48;;;;;;;;;4.00;3.00;;;;;21.63;44.42;101222.28;5068820;28;45553;-48
2022/08/31 01:36:14;;;;;;;;;4.75;4.75;;;;;21.62;44.70;101228.59;5080392;28;45390;-47
2022/08/31 01:38:40;;;;;;;;;5.25;4.25;;;;;21.61;44.53;101221.53;5080074;28;45240;-42
2022/08/31 01:41:05;;;;;;;;;6.25;4.50;;;;;21.58;44.86;101221.72;5076136;28;69712;-42
2022/08/31 01:43:32;;;;;;;;;3.00;3.00;;;;;21.54;44.90;101223.75;5051195;28;45764;-43
2022/08/31 01:45:59;;;;;;;;;4.50;4.00;;;;;21.52;44.60;101227.47;5070058;28;45400;-41
2022/08/31 01:48:24;;;;;;;;;4.00;4.00;;;;;21.48;45.46;101226.81;5073617;28;45476;-42
2022/08/31 01:50:50;;;;;;;;;9.00;5.00;;;;;21.47;44.88;101230.44;5056791;28;45316;-43
2022/08/31 01:53:15;;;;;;;;;4.25;4.00;;;;;21.47;45.10;101221.59;5074786;28;45417;-42
2022/08/31 01:55:40;;;;;;;;;4.50;3.50;;;;;21.43;45.54;101228.91;5079658;28;45505;-42
2022/08/31 01:58:07;;;;;;;;;5.25;4.75;;;;;21.37;44.99;101227.50;5073090;28;68850;-42
2022/08/31 02:00:33;;;;;;;;;3.75;3.75;;;;;21.32;45.74;101218.06;5077773;28;46484;-42
2022/08/31 02:03:00;;;;;;;;;5.00;4.00;;;;;21.26;45.41;101221.16;5052179;28;45348;-43
2022/08/31 02:05:27;;;;;;;;;4.75;4.00;;;;;21.28;44.97;101228.06;5074434;28;45220;-45
2022/08/31 02:07:53;;;;;;;;;6.75;4.25;;;;;21.27;46.39;101238.84;5076771;27;45380;-43
2022/08/31 02:10:18;;;;;;;;;5.00;4.00;;;;;21.26;45.45;101239.78;5071188;28;45779;-43
2022/08/31 02:12:43;;;;;;;;;5.75;5.50;;;;;21.24;45.39;101240.72;5058928;28;69604;-47
2022/08/31 02:15:09;;;;;;;;;6.50;5.00;;;;;21.21;45.83;101235.63;5074028;28;68288;-46
2022/08/31 02:17:35;;;;;;;;;4.25;4.25;;;;;21.18;45.84;101237.63;5077301;27;45434;-41
2022/08/31 02:20:00;;;;;;;;;4.50;3.50;;;;;21.16;45.65;101228.84;5078839;28;71357;-44
2022/08/31 02:22:25;;;;;;;;;8.75;5.50;;;;;21.12;45.72;101230.00;5077425;28;45283;-47
2022/08/31 02:24:51;;;;;;;;;7.00;4.00;;;;;21.10;45.20;101234.56;5075004;28;66224;-46
2022/08/31 02:27:16;;;;;;;;;5.25;4.50;;;;;21.09;45.76;101241.72;5072749;27;72278;-46
2022/08/31 02:29:41;;;;;;;;;6.50;3.00;;;;;21.09;46.34;101240.84;5069494;28;48283;-45
2022/08/31 02:32:07;;;;;;;;;4.75;3.25;;;;;21.03;46.14;101242.09;5031518;28;1136771;-45
2022/08/31 02:34:32;;;;;;;;;5.75;5.00;;;;;21.00;45.65;101247.59;5080291;28;45174;-49
2022/08/31 02:36:58;;;;;;;;;5.50;5.00;;;;;20.97;46.33;101238.00;5069283;28;45392;-49
2022/08/31 02:39:23;;;;;;;;;5.00;5.00;;;;;20.94;46.27;101240.84;5077561;28;59397;-41
2022/08/31 02:41:48;;;;;;;;;5.00;3.75;;;;;20.91;46.28;101241.06;5047898;28;67808;-42
2022/08/31 02:44:14;;;;;;;;;6.00;5.75;;;;;20.88;46.05;101243.06;5077930;28;67189;-41
2022/08/31 02:46:39;;;;;;;;;8.75;6.75;;;;;20.84;46.60;101245.91;5060713;28;73681;-44
2022/08/31 02:49:04;;;;;;;;;4.75;4.75;;;;;20.82;46.58;101244.28;5075780;28;65322;-43
2022/08/31 02:51:30;;;;;;;;;5.50;5.50;;;;;20.77;46.34;101249.91;5069356;28;54838;-51
2022/08/31 02:53:55;;;;;;;;;5.00;5.00;;;;;20.76;46.13;101248.19;5074275;28;61249;-41
2022/08/31 02:56:21;;;;;;;;;5.50;5.00;;;;;20.77;46.66;101247.25;5079110;28;45570;-41
2022/08/31 02:58:53;;;;;;;;;6.00;5.00;;;;;20.76;46.78;101244.66;5061500;28;48396;-42
2022/08/31 03:01:19;;;;;;;;;7.75;4.50;;;;;20.74;46.64;101252.75;5064428;28;45412;-43
2022/08/31 03:03:44;;;;;;;;;6.00;5.25;;;;;20.73;46.51;101244.84;5056988;28;45263;-41
2022/08/31 03:06:10;;;;;;;;;5.25;5.00;;;;;20.74;46.46;101255.41;5077570;28;73160;-43
2022/08/31 03:08:35;;;;;;;;;5.00;4.25;;;;;20.75;45.99;101248.25;5078113;28;75014;-40
2022/08/31 03:11:00;;;;;;;;;12.25;7.75;;;;;20.73;46.66;101251.00;5076911;28;66876;-41
2022/08/31 03:13:26;;;;;;;;;6.00;4.25;;;;;20.75;46.10;101250.94;5073949;28;45529;-41
2022/08/31 03:15:51;;;;;;;;;4.00;4.00;;;;;20.74;46.33;101260.72;5078425;28;45270;-41
2022/08/31 03:18:16;;;;;;;;;7.75;6.00;;;;;20.73;46.19;101256.34;5070533;28;46091;-44
2022/08/31 03:20:42;;;;;;;;;6.50;4.50;;;;;20.71;46.11;101257.41;5064484;28;71858;-41
2022/08/31 03:23:08;;;;;;;;;7.00;5.00;;;;;20.71;46.25;101255.59;5069093;28;45433;-42
2022/08/31 03:25:33;;;;;;;;;7.75;6.00;;;;;20.69;46.74;101254.81;5078324;28;45342;-42
2022/08/31 03:27:58;;;;;;;;;6.50;5.00;;;;;20.68;46.30;101258.41;5069758;28;74869;-41
2022/08/31 03:30:24;;;;;;;;;6.25;6.00;;;;;20.65;46.75;101259.47;5060169;28;70893;-42
2022/08/31 03:32:49;;;;;;;;;8.25;6.50;;;;;20.63;46.87;101255.22;5065466;28;45295;-41
2022/08/31 03:35:16;;;;;;;;;7.25;6.50;;;;;20.60;46.52;101266.00;5078351;28;45305;-44
2022/08/31 03:37:42;;;;;;;;;6.00;4.75;;;;;20.58;46.57;101266.09;5077475;28;46259;-41
2022/08/31 03:40:08;;;;;;;;;6.50;6.00;;;;;20.58;46.57;101267.91;5077755;28;45222;-44
2022/08/31 03:42:34;;;;;;;;;5.75;5.00;;;;;20.54;46.42;101267.22;5077558;28;45411;-44
2022/08/31 03:44:59;;;;;;;;;7.00;5.50;;;;;20.53;46.53;101264.66;5078713;27;45496;-43
2022/08/31 03:47:25;;;;;;;;;6.50;6.00;;;;;20.51;46.41;101264.75;5058707;28;70229;-44
2022/08/31 03:49:50;;;;;;;;;7.25;6.50;;;;;20.52;46.54;101263.78;5062641;28;65822;-43
2022/08/31 03:52:15;;;;;;;;;7.50;6.00;;;;;20.53;46.99;101268.16;5062657;27;60300;-46
2022/08/31 03:54:42;;;;;;;;;5.75;5.00;;;;;20.54;46.78;101269.88;5070127;28;64927;-45
2022/08/31 03:57:08;;;;;;;;;9.25;6.00;;;;;20.52;46.74;101265.59;5074345;28;47149;-42
2022/08/31 03:59:33;;;;;;;;;5.75;5.00;;;;;20.51;46.92;101261.25;5075849;28;45730;-43
2022/08/31 04:01:59;;;;;;;;;5.00;5.00;;;;;20.50;46.76;101271.00;5077421;28;68139;-43
2022/08/31 04:04:24;;;;;;;;;6.75;5.25;;;;;20.48;46.36;101268.44;5074886;28;45428;-42
2022/08/31 04:06:49;;;;;;;;;6.25;5.25;;;;;20.47;46.93;101279.19;5061229;28;70536;-43
2022/08/31 04:09:15;;;;;;;;;6.50;5.25;;;;;20.45;46.85;101279.28;5066122;28;45519;-44
2022/08/31 04:11:42;;;;;;;;;9.00;5.00;;;;;20.42;46.61;101270.63;5075067;28;45326;-42
2022/08/31 04:14:07;;;;;;;;;8.25;5.50;;;;;20.38;46.46;101275.28;5071497;28;45404;-41
2022/08/31 04:16:34;;;;;;;;;7.00;4.00;;;;;20.34;46.75;101272.88;5077490;28;45348;-44
2022/08/31 04:19:00;;;;;;;;;5.00;5.00;;;;;20.32;46.75;101269.47;5067348;28;45429;-44
2022/08/31 04:21:29;;;;;;;;;3.75;3.75;;;;;20.30;47.02;101269.53;5043772;28;45351;-43
2022/08/31 04:23:56;;;;;;;;;6.75;5.75;;;;;20.30;47.32;101264.22;5052025;28;45488;-41
2022/08/31 04:26:24;;;;;;;;;6.00;5.00;;;;;20.30;47.68;101275.72;5076002;28;45459;-41
2022/08/31 04:28:50;;;;;;;;;7.50;5.00;;;;;20.26;46.96;101274.19;5069424;28;45286;-41
2022/08/31 04:31:16;;;;;;;;;8.25;5.75;;;;;20.23;46.96;101279.69;5063851;28;45295;-41
2022/08/31 04:33:42;;;;;;;;;6.00;4.00;;;;;20.24;46.88;101289.38;5067515;28;45369;-42
2022/08/31 04:36:16;;;;;;;;;6.75;4.75;;;;;20.25;46.61;101284.91;5076635;28;46302;-41
2022/08/31 04:38:42;;;;;;;;;5.00;5.00;;;;;20.26;47.36;101276.84;5069365;28;45321;-43
2022/08/31 04:41:10;;;;;;;;;8.00;5.00;;;;;20.26;47.28;101279.50;5069855;28;45328;-44
2022/08/31 04:43:38;;;;;;;;;6.00;3.75;;;;;20.27;46.70;101283.88;5081511;27;45473;-43
2022/08/31 04:46:05;;;;;;;;;5.25;5.25;;;;;20.27;47.29;101283.00;5079613;27;45225;-42
2022/08/31 04:48:32;;;;;;;;;7.25;5.75;;;;;20.24;47.01;101281.41;5078791;27;45475;-44
2022/08/31 04:51:02;;;;;;;;;13.25;5.75;;;;;20.20;47.03;101279.00;5075058;27;45600;-42
2022/08/31 04:53:27;;;;;;;;;8.25;5.00;;;;;20.18;47.29;101281.75;5079626;27;45485;-43
2022/08/31 04:55:53;;;;;;;;;8.00;6.00;;;;;20.18;47.04;101280.91;5065521;28;46006;-42
2022/08/31 04:58:19;;;;;;;;;7.00;4.00;;;;;20.16;47.05;101273.00;5064833;28;57665;-42
2022/08/31 05:00:45;;;;;;;;;8.00;5.75;;;;;20.17;47.58;101273.84;5074521;28;45250;-42
2022/08/31 05:03:10;;;;;;;;;5.00;5.00;;;;;20.13;47.79;101272.34;5059716;28;45277;-43
2022/08/31 05:05:39;;;;;;;;;4.25;4.25;;;;;20.07;47.76;101271.75;5074106;28;63546;-42
2022/08/31 05:08:05;;;;;;;;;8.25;6.00;;;;;20.03;47.96;101267.56;5076146;28;45458;-41
2022/08/31 05:10:31;;;;;;;;;5.50;5.00;;;;;20.00;47.56;101272.22;5076706;28;45494;-40
2022/08/31 05:12:56;;;;;;;;;8.75;4.50;;;;;19.97;47.75;101273.22;5048018;28;53699;-41
2022/08/31 05:15:22;;;;;;;;;10.75;5.00;;;;;19.93;47.80;101269.03;5075969;28;74230;-43
2022/08/31 05:17:47;;;;;;;;;7.75;5.25;;;;;19.90;48.31;101269.22;5061056;28;66687;-42
2022/08/31 05:20:12;;;;;;;;;8.25;5.00;;;;;19.87;47.85;101270.25;5077477;27;69983;-45
2022/08/31 05:22:38;;;;;;;;;6.50;4.25;;;;;19.85;48.07;101277.47;5068614;27;68752;-42
2022/08/31 05:25:05;;;;;;;;;7.75;4.00;;;;;19.82;48.34;101274.13;5076274;28;46389;-43
2022/08/31 05:27:32;;;;;;;;;10.00;6.00;;;;;19.80;48.19;101270.72;5071643;28;45255;-41
2022/08/31 05:29:57;;;;;;;;;6.25;5.00;;;;;19.80;48.56;101281.34;5081229;27;45383;-41
2022/08/31 05:32:22;;;;;;;;;6.00;4.50;;;;;19.80;48.59;101282.19;5078182;27;71786;-43
2022/08/31 05:34:48;;;;;;;;;4.50;4.50;;;;;19.82;48.11;101282.09;5073595;27;61773;-41
2022/08/31 05:37:14;;;;;;;;;6.75;5.25;;;;;19.85;48.20;101282.78;5069344;27;45383;-41
2022/08/31 05:39:39;;;;;;;;;4.00;3.25;;;;;19.85;47.68;101280.13;5079903;28;45324;-42
2022/08/31 05:42:06;;;;;;;;;7.00;6.00;;;;;19.87;47.90;101280.03;5075075;28;45455;-41
2022/08/31 05:44:33;;;;;;;;;6.75;5.00;;;;;19.89;47.82;101276.34;5073754;28;46222;-43
2022/08/31 05:46:58;;;;;;;;;8.50;5.50;;;;;19.89;47.92;101280.78;5072835;28;45748;-42
2022/08/31 05:49:24;;;;;;;;;6.00;5.00;;;;;19.90;47.89;101277.19;5080258;28;60451;-42
2022/08/31 05:51:49;;;;;;;;;6.00;5.50;;;;;19.92;47.92;101280.63;5072515;28;63514;-44
2022/08/31 05:54:16;;;;;;;;;7.75;7.00;;;;;19.90;48.36;101283.38;5075221;28;46199;-42
2022/08/31 05:56:42;;;;;;;;;5.00;5.00;;;;;19.90;47.92;101285.16;5071155;28;45313;-40
2022/08/31 05:59:07;;;;;;;;;8.00;5.00;;;;;19.91;48.06;101290.38;5071735;28;45432;-45
2022/08/31 06:01:35;;;;;;;;;6.25;6.25;;;;;19.92;48.34;101283.28;5073207;28;63814;-46
2022/08/31 06:04:01;;;;;;;;;9.75;6.00;;;;;19.94;48.39;101291.13;5073296;28;46269;-44
2022/08/31 06:06:27;;;;;;;;;11.25;7.00;;;;;19.92;48.10;101285.94;5072238;28;45452;-43
2022/08/31 06:08:53;;;;;;;;;6.25;3.00;;;;;19.90;48.04;101291.34;5072834;28;45444;-45
2022/08/31 06:11:20;;;;;;;;;8.75;6.75;;;;;19.92;48.08;101288.59;5069395;28;45224;-46
2022/08/31 06:13:49;;;;;;;;;7.50;7.00;;;;;19.94;48.11;101285.81;5061954;28;46056;-46
2022/08/31 06:16:16;;;;;;;;;7.75;7.50;;;;;19.96;48.28;101290.13;5074423;28;45370;-42
2022/08/31 06:18:49;;;;;;;;;9.00;7.25;;;;;19.96;48.84;101289.28;5073486;28;45446;-45
2022/08/31 06:21:17;;;;;;;;;6.00;6.00;;;;;19.99;48.42;101295.28;5080877;27;45515;-43
2022/08/31 06:23:42;;;;;;;;;8.00;6.00;;;;;20.03;48.14;101291.47;5079848;27;47222;-41
2022/08/31 06:26:14;;;;;;;;;8.75;5.75;;;;;20.05;48.33;101294.06;5072869;27;45474;-46
2022/08/31 06:28:43;;;;;;;;;7.00;5.00;;;;;20.02;48.35;101284.44;5074740;27;45425;-41
2022/08/31 06:31:22;;;;;;;;;12.00;6.75;;;;;20.03;48.71;101299.44;5076972;28;45785;-48
2022/08/31 06:33:48;;;;;;;;;6.00;6.00;;;;;20.00;48.58;101294.31;5076048;27;45331;-46
2022/08/31 06:36:16;;;;;;;;;9.25;7.50;;;;;20.00;48.23;101293.47;5074972;28;45525;-49
2022/08/31 06:38:42;;;;;;;;;6.00;5.25;;;;;20.00;48.38;101290.81;5077029;28;46975;-49
2022/08/31 06:41:16;;;;;;;;;9.00;7.75;;;;;20.00;48.05;101293.47;5072394;27;45209;-44
2022/08/31 06:43:42;;;;;;;;;8.50;7.00;;;;;20.01;48.05;101297.81;5071744;28;46181;-43
2022/08/31 06:46:08;;;;;;;;;6.75;5.75;;;;;20.02;48.22;101297.72;5077103;28;45637;-43
2022/08/31 06:48:34;;;;;;;;;9.00;6.00;;;;;20.03;48.56;101295.94;5048015;28;45251;-44
2022/08/31 06:51:00;;;;;;;;;7.50;3.50;;;;;20.04;48.51;101297.63;5080940;27;45549;-43
2022/08/31 06:53:25;;;;;;;;;8.75;7.00;;;;;20.06;48.32;101293.97;5073185;28;69478;-42
2022/08/31 06:55:50;;;;;;;;;7.50;6.75;;;;;20.08;48.41;101305.34;5078586;27;45470;-42
2022/08/31 06:58:16;;;;;;;;;7.00;6.50;;;;;20.13;48.59;101318.34;5055066;27;45481;-43
2022/08/31 07:00:41;;;;;;;;;5.75;5.75;;;;;20.15;48.41;101311.19;5065315;27;70931;-47
2022/08/31 07:03:23;;;;;;;;;12.25;8.75;;;;;20.15;48.20;101312.97;5073626;27;45568;-49
2022/08/31 07:05:51;;;;;;;;;8.75;8.00;;;;;20.14;48.35;101312.13;5071887;28;45313;-45
2022/08/31 07:08:16;;;;;;;;;8.00;8.00;;;;;20.18;48.21;101308.31;5078623;28;45269;-47
2022/08/31 07:10:42;;;;;;;;;7.50;7.25;;;;;20.20;48.53;101309.13;5071739;27;45441;-44
2022/08/31 07:13:07;;;;;;;;;9.00;8.00;;;;;20.21;48.28;101310.81;5078887;28;68000;-45
2022/08/31 07:15:32;;;;;;;;;10.25;9.00;;;;;20.21;48.24;101309.97;5076906;27;73229;-45
2022/08/31 07:17:58;;;;;;;;;10.00;9.00;;;;;20.22;48.43;101309.00;5076585;27;69325;-45
2022/08/31 07:20:23;;;;;;;;;12.25;9.25;;;;;20.23;48.00;101308.06;5078262;28;70805;-45
2022/08/31 07:22:48;;;;;;;;;9.75;9.25;;;;;20.24;48.25;101310.63;5077801;28;69458;-44
2022/08/31 07:25:14;;;;;;;;;9.00;9.00;;;;;20.29;48.39;101315.66;5078579;28;61264;-45
2022/08/31 07:27:39;;;;;;;;;8.00;7.50;;;;;20.35;48.10;101301.19;5072461;28;45430;-45
2022/08/31 07:30:05;;;;;;;;;8.00;7.00;;;;;20.42;47.96;101310.50;5070745;27;45483;-43
2022/08/31 07:32:30;;;;;;;;;8.00;7.00;;;;;20.46;47.85;101302.25;5071730;27;46459;-49
2022/08/31 07:34:56;;;;;;;;;13.25;9.75;;;;;20.51;47.77;101299.31;5075156;27;45412;-44
2022/08/31 07:42:49;;;;;;;;;8.00;6.50;;;;;20.65;47.83;101304.69;5073947;27;45518;-44
2022/08/31 07:45:23;;;;;;;;;9.25;9.25;;;;;20.68;47.63;101306.28;5070929;27;61743;-43
2022/08/31 07:47:52;;;;;;;;;9.75;8.50;;;;;20.69;47.64;101310.69;5073777;27;45347;-43
2022/08/31 07:50:19;;;;;;;;;9.75;7.75;;;;;20.70;47.67;101309.75;5064816;27;45532;-43
2022/08/31 07:52:50;;;;;;;;;13.00;10.25;;;;;20.75;47.85;101312.09;5069515;27;46384;-43
2022/08/31 07:55:17;;;;;;;;;10.00;8.75;;;;;20.76;47.75;101313.81;5073323;27;45395;-46
2022/08/31 07:57:43;;;;;;;;;13.00;10.00;;;;;20.78;47.72;101315.44;5068291;28;45455;-44
2022/08/31 08:00:10;;;;;;;;;8.75;8.75;;;;;20.80;47.79;101307.38;5063421;27;45420;-44
2022/08/31 08:02:38;;;;;;;;;11.00;9.25;;;;;20.79;47.73;101306.53;5044250;27;47347;-49
2022/08/31 08:05:09;;;;;;;;;10.25;9.00;;;;;20.82;47.23;101308.13;5036922;28;45503;-43
2022/08/31 08:07:37;;;;;;;;;9.00;8.75;;;;;20.89;47.42;101316.59;5066651;27;45439;-45
2022/08/31 08:10:05;;;;;;;;;12.00;9.25;;;;;20.94;47.30;101309.19;5060038;28;45358;-47
2022/08/31 08:12:35;;;;;;;;;8.25;8.25;;;;;20.99;47.37;101307.09;5053991;28;46256;-44
2022/08/31 08:15:01;;;;;;;;;10.50;9.25;;;;;21.03;47.57;101309.50;5041308;27;45298;-43
2022/08/31 08:17:27;;;;;;;;;14.75;9.25;;;;;21.09;47.24;101302.91;5067270;27;45680;-45
2022/08/31 08:19:52;;;;;;;;;11.75;11.50;;;;;21.14;47.06;101305.28;5061935;28;46694;-45
2022/08/31 08:22:17;;;;;;;;;11.50;10.00;;;;;21.18;47.01;101299.69;5064841;28;60877;-48
2022/08/31 08:24:46;;;;;;;;;10.25;9.00;;;;;21.21;46.86;101295.97;5078228;27;70173;-42
2022/08/31 08:27:12;;;;;;;;;13.50;10.75;;;;;21.24;46.96;101290.44;5070964;28;45273;-43
2022/08/31 08:29:38;;;;;;;;;6.50;6.25;;;;;21.27;46.78;101286.75;5072620;27;45475;-43
2022/08/31 08:32:04;;;;;;;;;11.75;7.50;;;;;21.30;47.34;101290.06;5076989;28;45276;-43
2022/08/31 08:34:29;;;;;;;;;14.50;9.75;;;;;21.37;47.27;101287.84;5076838;27;45242;-43
2022/08/31 08:36:54;;;;;;;;;10.75;9.00;;;;;21.41;46.76;101281.41;5058482;28;68572;-44
2022/08/31 08:39:20;;;;;;;;;12.25;10.50;;;;;21.42;47.01;101283.97;5058588;28;66225;-45
2022/08/31 08:41:46;;;;;;;;;11.00;10.25;;;;;21.45;46.98;101280.25;5075202;27;45358;-43
2022/08/31 08:44:14;;;;;;;;;13.50;8.25;;;;;21.51;46.61;101276.34;5078620;28;45530;-44
2022/08/31 08:46:47;;;;;;;;;12.00;10.50;;;;;21.58;46.74;101280.31;5057139;28;45543;-44
2022/08/31 08:49:18;;;;;;;;;13.00;10.00;;;;;21.64;46.61;101282.63;5078259;28;45554;-46
2022/08/31 08:51:44;;;;;;;;;10.00;9.00;;;;;21.70;46.43;101276.88;5060152;28;45387;-45
2022/08/31 08:54:13;;;;;;;;;10.50;8.75;;;;;21.79;46.22;101278.06;5077650;28;45286;-44
2022/08/31 08:56:45;;;;;;;;;15.00;11.00;;;;;21.86;46.38;101276.72;5050568;28;45502;-46
2022/08/31 08:59:11;;;;;;;;;17.75;13.75;;;;;21.92;46.52;101271.00;5073699;27;45230;-44
2022/08/31 09:01:38;;;;;;;;;10.00;9.50;;;;;21.98;46.16;101273.25;5054180;28;46142;-45
2022/08/31 09:04:06;;;;;;;;;14.00;9.75;;;;;22.04;45.96;101273.78;5074481;28;71492;-47
2022/08/31 09:06:53;;;;;;;;;13.25;9.00;;;;;22.09;46.06;101271.69;5082181;28;45509;-44
2022/08/31 09:10:00;;;;;;;;;13.00;9.75;;;;;22.17;45.71;101277.34;5046362;28;45491;-43
2022/08/31 09:12:59;;;;;;;;;12.75;9.50;;;;;22.25;46.08;101271.50;5067678;28;45512;-42
2022/08/31 09:15:40;;;;;;;;;10.25;8.00;;;;;22.33;45.98;101269.22;5065202;28;45640;-47
2022/08/31 09:18:30;;;;;;;;;10.25;9.25;;;;;22.45;46.00;101272.84;5059399;28;45578;-44
2022/08/31 09:21:16;;;;;;;;;16.25;14.50;;;;;22.52;45.37;101269.66;5061926;28;45455;-45
2022/08/31 09:23:47;;;;;;;;;13.75;11.25;;;;;22.59;45.20;101267.41;5057289;28;47020;-44
2022/08/31 09:26:18;;;;;;;;;12.25;11.00;;;;;22.66;45.27;101268.69;5074048;28;45310;-44
2022/08/31 09:28:49;;;;;;;;;9.00;8.25;;;;;22.74;45.46;101273.50;5074966;28;45312;-45
2022/08/31 09:31:33;;;;;;;;;12.75;8.00;;;;;22.81;45.27;101263.25;5071716;27;45470;-45
2022/08/31 09:33:58;;;;;;;;;10.75;10.25;;;;;22.84;45.25;101260.34;5081744;28;46126;-44
2022/08/31 09:36:32;;;;;;;;;14.25;11.00;;;;;22.90;45.05;101265.28;5058561;28;45345;-44
2022/08/31 09:39:12;;;;;;;;;10.50;9.00;;;;;22.93;45.15;101255.22;5080564;27;45541;-45
2022/08/31 09:41:38;;;;;;;;;10.75;9.00;;;;;22.99;44.65;101255.75;5080321;27;45282;-45
2022/08/31 09:44:33;;;;;;;;;7.75;7.00;;;;;23.06;44.54;101254.38;5044657;28;45362;-43
2022/08/31 09:47:01;;;;;;;;;10.75;10.25;;;;;23.10;44.66;101256.72;5061200;27;45407;-46
2022/08/31 09:49:37;;;;;;;;;8.00;8.00;;;;;23.15;44.50;101245.72;5076627;28;45477;-49
2022/08/31 09:55:17;;;;;;;;;11.00;8.00;;;;;23.30;44.58;101243.72;5075736;27;45810;-44
2022/08/31 09:57:57;;;;;;;;;13.00;8.25;;;;;23.38;43.80;101243.19;5079901;27;45348;-44
2022/08/31 10:00:37;;;;;;;;;9.75;9.00;;;;;23.41;44.15;101242.94;5080053;27;45465;-43
2022/08/31 10:03:20;;;;;;;;;9.50;8.50;;;;;23.45;43.86;101247.97;5071839;28;45534;-46
2022/08/31 10:05:50;;;;;;;;;8.50;8.00;;;;;23.51;44.17;101238.66;5065959;27;47218;-43
2022/08/31 10:08:37;;;;;;;;;13.75;9.75;;;;;23.57;44.25;101230.19;5076575;27;45426;-46
2022/08/31 10:11:12;;;;;;;;;13.50;11.50;;;;;23.61;43.91;101225.47;5063601;28;45427;-46
2022/08/31 10:13:43;;;;;;;;;12.25;8.50;;;;;23.68;43.98;101226.72;5077733;27;45151;-45
2022/08/31 10:16:13;;;;;;;;;11.00;10.00;;;;;23.77;43.56;101219.84;5057352;28;46104;-47
2022/08/31 10:19:12;;;;;;;;;15.00;9.25;;;;;23.85;43.39;101212.09;5076173;27;45170;-46
2022/08/31 10:21:54;;;;;;;;;10.75;10.00;;;;;23.93;43.33;101212.38;5045872;28;45378;-47
2022/08/31 10:25:11;;;;;;;;;10.25;8.00;;;;;23.98;43.25;101209.38;5079911;27;45233;-47
2022/08/31 10:28:11;;;;;;;;;15.00;13.25;;;;;24.06;43.18;101206.94;4991628;28;46960;-44
2022/08/31 10:30:45;;;;;;;;;9.75;8.25;;;;;24.13;42.87;101200.16;5010684;28;45476;-48
2022/08/31 10:33:20;;;;;;;;;9.00;8.00;;;;;24.21;42.82;101216.47;5062298;27;45326;-47
2022/08/31 10:35:57;;;;;;;;;9.50;8.00;;;;;24.28;42.64;101216.03;5078570;28;45565;-49
2022/08/31 10:38:37;;;;;;;;;9.00;7.75;;;;;24.35;42.43;101210.06;5056893;28;45512;-50
2022/08/31 10:41:02;;;;;;;;;12.25;7.75;;;;;24.41;42.48;101209.56;5057461;28;45754;-48
2022/08/31 10:43:47;;;;;;;;;11.00;7.75;;;;;24.48;42.33;101209.09;5074113;27;45490;-45
2022/08/31 10:46:14;;;;;;;;;10.00;7.00;;;;;24.55;42.38;101207.69;5058684;27;45294;-47
2022/08/31 10:48:45;;;;;;;;;9.00;7.50;;;;;24.61;42.27;101201.84;5062278;28;46154;-45
2022/08/31 10:51:18;;;;;;;;;8.00;8.00;;;;;24.66;41.37;101196.13;5050757;27;45551;-44
2022/08/31 10:54:05;;;;;;;;;8.25;8.00;;;;;24.70;41.56;101195.78;5069674;27;45365;-44
2022/08/31 10:56:57;;;;;;;;;9.25;8.50;;;;;24.74;41.89;101191.88;5068716;27;45179;-45
2022/08/31 10:59:42;;;;;;;;;11.50;9.00;;;;;24.77;41.62;101191.63;5063939;27;46405;-46
2022/08/31 11:02:13;;;;;;;;;10.25;10.00;;;;;24.80;41.76;101196.72;5071781;27;45260;-47
2022/08/31 11:05:10;;;;;;;;;8.00;6.75;;;;;24.83;41.21;101203.66;5051572;28;45343;-45
2022/08/31 11:07:45;;;;;;;;;8.00;8.00;;;;;24.86;41.20;101191.84;5071133;27;45280;-44
2022/08/31 11:10:21;;;;;;;;;6.50;6.50;;;;;24.90;41.35;101194.16;5074324;27;45602;-44
2022/08/31 11:12:55;;;;;;;;;6.75;6.75;;;;;24.96;41.44;101190.97;5064985;27;46330;-47
2022/08/31 11:15:35;;;;;;;;;15.50;8.00;;;;;25.02;41.11;101186.97;5079332;27;45256;-44
2022/08/31 11:18:22;;;;;;;;;9.75;8.00;;;;;25.09;40.96;101187.31;5060986;28;45418;-45
2022/08/31 11:20:56;;;;;;;;;7.25;6.75;;;;;25.14;40.73;101187.78;5069319;27;46271;-45
2022/08/31 11:23:21;;;;;;;;;9.00;8.00;;;;;25.18;41.16;101192.78;5073182;27;45970;-45
2022/08/31 11:26:11;;;;;;;;;12.00;10.00;;;;;25.25;40.80;101184.25;5076529;28;45354;-45
2022/08/31 11:28:44;;;;;;;;;12.75;9.50;;;;;25.30;40.77;101182.06;5076654;27;45482;-46
2022/08/31 11:31:19;;;;;;;;;9.00;8.00;;;;;25.37;40.33;101183.25;5061841;28;46888;-45
2022/08/31 11:33:49;;;;;;;;;10.00;8.00;;;;;25.41;40.64;101181.16;5061876;28;45851;-49
2022/08/31 11:36:40;;;;;;;;;8.50;8.00;;;;;25.44;40.85;101179.09;5073032;28;45428;-46
2022/08/31 11:39:05;;;;;;;;;8.25;7.00;;;;;25.49;40.00;101178.72;5075964;27;45364;-48
2022/08/31 11:41:35;;;;;;;;;10.00;8.00;;;;;25.50;40.16;101181.28;5069198;28;45989;-48
2022/08/31 11:44:03;;;;;;;;;8.50;8.00;;;;;25.55;39.97;101178.19;5069916;28;45706;-45